Latest Coastal Weather Observations for Mandurah

IDW60701

Issued at 8:35 pm WST Thursday 30 October 2014 (issued every 10 minutes, with the page automatically refreshed every 10 minutes)

About coastal observations | Map of coastal stations | Coastal observations for WA | Marine services | Other Formats
Station Details ID: 009977 Name: MANDURAH Lat: -32.52 Lon: 115.71 Height: 3.0 m
Data from the previous 72 hours. | See also: Recent months at Mandurah
Date/Time
WST
Temp

°C
Wind Pressure Rain
since 9am
mm
Weather Cloud Vis
km
Sea
Height
m
Swell
Dir
 
Speed
knots
Gust
knots
hPa Trend Height
m
Period
s
Dir
30/08:30pm 16.8 WSW 11 18 1015.4 - 0.6 - - - - - - -
30/08:00pm 17.8 SW 7 10 1015.1 - 0.0 - - - - - - -
30/07:30pm 17.8 SW 8 12 1014.9 - 0.0 - - - - - - -
30/07:00pm 17.9 SW 10 16 1014.7 - 0.0 - - - - - - -
30/06:30pm 18.3 SW 9 13 1014.3 - 0.0 - - - - - - -
30/06:00pm 18.4 WSW 11 17 1014.2 - 0.0 - - - - - - -
30/05:30pm 18.5 WSW 9 16 1014.0 - 0.0 - - - - - - -
30/05:00pm 18.5 WSW 10 16 1013.9 - 0.0 - - - - - - -
30/04:30pm 18.7 WSW 10 15 1013.8 - 0.0 - - - - - - -
30/04:00pm 19.3 WSW 9 14 1013.9 - 0.0 - - - - - - -
30/03:30pm 19.2 WSW 10 14 1013.9 - 0.0 - - - - - - -
30/03:00pm 19.6 WSW 11 15 1013.9 - 0.0 - - - - - - -
30/02:30pm 20.3 WSW 9 13 1013.6 - 0.0 - - - - - - -
30/02:00pm 20.8 WSW 9 13 1013.8 - 0.0 - - - - - - -
30/01:30pm 20.1 WSW 11 15 1013.9 - 0.0 - - - - - - -
30/01:00pm 20.4 WSW 9 14 1013.9 - 0.0 - - - - - - -
30/12:30pm 21.2 WSW 9 12 1014.0 - 0.0 - - - - - - -
30/12:00pm 20.1 WSW 9 14 1014.1 - 0.0 - - - - - - -
30/11:30am 20.4 WSW 10 15 1014.4 - 0.0 - - - - - - -
30/11:00am 19.2 SW 10 15 1014.3 - 0.0 - - - - - - -
30/10:30am 18.4 SW 9 13 1014.3 - 0.0 - - - - - - -
30/10:00am 18.2 SSW 8 12 1014.3 - 0.0 - - - - - - -
30/09:30am 17.6 SSW 7 10 1014.3 - 0.0 - - - - - - -
30/09:00am 17.2 SSW 7 12 1014.4 - 0.0 - - - - - - -
30/08:30am 17.5 SSW 5 10 1014.4 - 0.0 - - - - - - -
30/08:00am 16.9 SSW 6 9 1014.5 - 0.0 - - - - - - -
30/07:30am 16.7 S 6 10 1014.1 - 0.0 - - - - - - -
30/07:00am 16.2 S 5 8 1014.0 - 0.0 - - - - - - -
30/06:30am 15.9 S 6 9 1014.0 - 0.0 - - - - - - -
30/06:00am 15.4 S 7 10 1014.0 - 0.0 - - - - - - -
30/05:30am 15.1 S 7 10 1013.7 - 0.0 - - - - - - -
30/05:00am 15.2 S 7 10 1013.7 - 0.0 - - - - - - -
30/04:30am 15.4 S 7 11 1013.5 - 0.0 - - - - - - -
30/04:00am 15.6 S 8 12 1013.3 - 0.0 - - - - - - -
30/03:30am 15.9 S 9 12 1013.2 - 0.0 - - - - - - -
30/03:00am 16.2 S 9 13 1013.3 - 0.0 - - - - - - -
30/02:30am 16.4 S 9 14 1013.1 - 0.0 - - - - - - -
30/02:00am 16.5 S 9 13 1013.1 - 0.0 - - - - - - -
30/01:30am 16.6 S 10 14 1013.0 - 0.0 - - - - - - -
30/01:00am 16.8 S 8 13 1013.2 - 0.0 - - - - - - -
30/12:30am 16.9 S 9 14 1013.4 - 0.0 - - - - - - -
30/12:00am 17.2 S 9 16 1013.6 - 0.0 - - - - - - -
 
Date/Time
WST
Temp

°C
Wind Pressure Rain
since 9am
mm
Weather Cloud Vis
km
Sea
Height
m
Swell
Dir
 
Speed
knots
Gust
knots
hPa Trend Height
m
Period
s
Dir
29/11:30pm 17.6 S 10 15 1013.7 - 0.0 - - - - - - -
29/11:00pm 17.9 SSW 9 14 1013.7 - 0.0 - - - - - - -
29/10:30pm 18.6 S 9 16 1013.7 - 0.0 - - - - - - -
29/10:00pm 19.1 S 10 14 1013.7 - 0.0 - - - - - - -
29/09:30pm 19.5 S 8 12 1013.5 - 0.0 - - - - - - -
29/09:00pm 19.5 SSW 9 15 1013.5 - 0.0 - - - - - - -
29/08:30pm 19.5 SSW 8 12 1013.5 - 0.0 - - - - - - -
29/08:00pm 19.5 SSW 9 13 1013.2 - 0.0 - - - - - - -
29/07:30pm 19.7 SW 8 13 1012.8 - 0.0 - - - - - - -
29/07:00pm 19.9 SSW 8 12 1012.5 - 0.0 - - - - - - -
29/06:30pm 20.4 SSW 9 12 1012.3 - 0.0 - - - - - - -
29/06:00pm 20.9 SSW 10 13 1012.1 - 0.0 - - - - - - -
29/05:30pm 22.4 SSW 9 12 1012.1 - 0.0 - - - - - - -
29/05:00pm 23.3 SSW 10 15 1012.1 - 0.0 - - - - - - -
29/04:30pm 23.6 SSW 10 15 1012.4 - 0.0 - - - - - - -
29/04:00pm 23.9 SSW 12 16 1012.2 - 0.0 - - - - - - -
29/03:30pm 23.9 SSW 12 17 1012.0 - 0.0 - - - - - - -
29/03:00pm 23.3 SW 10 14 1012.0 - 0.0 - - - - - - -
29/02:30pm 25.1 WSW 11 15 1012.3 - 0.0 - - - - - - -
29/02:00pm 26.7 SW 8 11 1012.4 - 0.0 - - - - - - -
29/01:30pm 25.5 S 9 14 1012.2 - 0.0 - - - - - - -
29/01:00pm 24.5 S 9 14 1012.5 - 0.0 - - - - - - -
29/12:30pm 24.1 SSW 9 13 1013.0 - 0.0 - - - - - - -
29/12:00pm 23.4 SSW 10 16 1013.2 - 0.0 - - - - - - -
29/11:30am 23.3 SSW 10 15 1013.4 - 0.0 - - - - - - -
29/11:00am 23.0 SSW 10 15 1013.9 - 0.0 - - - - - - -
29/10:30am 22.2 SSE 8 11 1014.0 - 0.0 - - - - - - -
29/10:00am 21.6 S 8 13 1014.1 - 0.0 - - - - - - -
29/09:30am 20.7 S 10 15 1013.9 - 0.0 - - - - - - -
29/09:00am 19.8 S 10 14 1014.0 - 0.0 - - - - - - -
29/08:30am 19.1 SSE 7 11 1014.1 - 0.0 - - - - - - -
29/08:00am 18.4 S 9 13 1013.9 - 0.0 - - - - - - -
29/07:30am 17.9 SSE 7 10 1013.7 - 0.0 - - - - - - -
29/07:00am 16.9 S 8 12 1013.6 - 0.0 - - - - - - -
29/06:30am 16.9 S 8 14 1013.7 - 0.0 - - - - - - -
29/06:00am 16.8 S 7 9 1013.5 - 0.0 - - - - - - -
29/05:30am 16.9 S 7 11 1013.3 - 0.0 - - - - - - -
29/05:00am 16.9 S 9 14 1012.9 - 0.0 - - - - - - -
29/04:30am 17.2 S 8 11 1012.6 - 0.0 - - - - - - -
29/04:00am 17.4 S 9 14 1012.5 - 0.0 - - - - - - -
29/03:30am 17.8 SSE 10 15 1012.2 - 0.0 - - - - - - -
29/03:00am 18.3 SSE 10 14 1012.3 - 0.0 - - - - - - -
29/02:30am 18.7 S 10 15 1012.2 - 0.0 - - - - - - -
29/02:00am 19.0 S 8 15 1012.3 - 0.0 - - - - - - -
29/01:30am 19.3 S 8 12 1012.3 - 0.0 - - - - - - -
29/01:00am 19.6 S 8 13 1012.4 - 0.0 - - - - - - -
29/12:30am 19.9 S 8 13 1012.8 - 0.0 - - - - - - -
29/12:00am 19.9 S 8 12 1012.9 - 0.0 - - - - - - -
 
Date/Time
WST
Temp

°C
Wind Pressure Rain
since 9am
mm
Weather Cloud Vis
km
Sea
Height
m
Swell
Dir
 
Speed
knots
Gust
knots
hPa Trend Height
m
Period
s
Dir
28/11:30pm 19.8 S 8 13 1013.1 - 0.0 - - - - - - -
28/11:00pm 19.9 S 7 11 1013.0 - 0.0 - - - - - - -
28/10:30pm 20.3 S 8 11 1013.2 - 0.0 - - - - - - -
28/10:00pm 20.9 S 7 9 1013.2 - 0.0 - - - - - - -
28/09:30pm 21.2 S 8 11 1013.2 - 0.0 - - - - - - -
28/09:00pm 21.3 S 9 14 1013.1 - 0.0 - - - - - - -
28/08:30pm 21.3 S 11 15 1013.1 - 0.0 - - - - - - -
28/08:00pm 21.2 S 8 12 1013.2 - 0.0 - - - - - - -
28/07:30pm 21.3 S 8 12 1013.2 - 0.0 - - - - - - -
28/07:00pm 21.5 S 7 10 1013.2 - 0.0 - - - - - - -
28/06:30pm 21.7 S 8 11 1013.0 - 0.0 - - - - - - -
28/06:00pm 22.0 S 10 13 1013.0 - 0.0 - - - - - - -
28/05:30pm 22.7 S 9 16 1013.0 - 0.0 - - - - - - -
28/05:00pm 23.3 SSW 7 11 1013.1 - 0.0 - - - - - - -
28/04:30pm 23.8 SW 7 12 1013.0 - 0.0 - - - - - - -
28/04:00pm 24.3 SSW 7 10 1013.0 - 0.0 - - - - - - -
28/03:30pm 24.6 SSW 8 12 1012.9 - 0.0 - - - - - - -
28/03:00pm 25.1 S 8 12 1013.0 - 0.0 - - - - - - -
28/02:30pm 26.2 SSW 8 12 1013.5 - 0.0 - - - - - - -
28/02:00pm 26.1 SSW 8 11 1013.6 - 0.0 - - - - - - -
28/01:30pm 26.6 S 7 12 1013.8 - 0.0 - - - - - - -
28/01:00pm 27.1 S 7 10 1014.1 - 0.0 - - - - - - -
28/12:30pm 26.6 S 7 10 1014.2 - 0.0 - - - - - - -
28/12:00pm 26.3 S 7 10 1014.5 - 0.0 - - - - - - -
28/11:30am 25.3 S 5 8 1015.0 - 0.0 - - - - - - -
28/11:00am 23.9 S 5 7 1015.7 - 0.0 - - - - - - -
28/10:30am 22.5 S 6 8 1016.0 - 0.0 - - - - - - -
28/10:00am 21.1 SSE 6 9 1016.4 - 0.0 - - - - - - -
28/09:30am 21.0 SSE 5 7 1016.7 - 0.0 - - - - - - -
28/09:00am 19.3 S 5 7 1016.9 - 0.0 - - - - - - -
28/08:30am 19.2 ESE 6 10 1017.0 - 0.0 - - - - - - -
28/08:00am 18.3 ESE 6 9 1017.2 - 0.0 - - - - - - -
28/07:30am 17.1 ESE 5 7 1017.2 - 0.0 - - - - - - -
28/07:00am 15.6 SE 4 6 1017.4 - 0.0 - - - - - - -
28/06:30am 15.2 SE 3 5 1017.6 - 0.0 - - - - - - -
28/06:00am 14.9 SE 4 7 1017.4 - 0.0 - - - - - - -
28/05:30am 14.7 SE 4 6 1017.4 - 0.0 - - - - - - -
28/05:00am 14.7 SE 4 6 1017.3 - 0.0 - - - - - - -
28/04:30am 14.7 SE 4 5 1017.4 - 0.0 - - - - - - -
28/04:00am 14.8 ESE 4 6 1017.5 - 0.0 - - - - - - -
28/03:30am 15.2 ESE 5 9 1017.7 - 0.0 - - - - - - -
28/03:00am 15.4 SE 5 8 1017.6 - 0.0 - - - - - - -
28/02:30am 15.7 SSE 6 9 1017.4 - 0.0 - - - - - - -
28/02:00am 16.2 SSE 9 12 1017.5 - 0.0 - - - - - - -
28/01:30am 16.4 SSE 8 12 1017.7 - 0.0 - - - - - - -
28/01:00am 16.5 SSE 8 11 1018.1 - 0.0 - - - - - - -
28/12:30am 16.8 SSE 9 12 1018.4 - 0.0 - - - - - - -
28/12:00am 16.8 SSE 9 12 1018.7 - 0.0 - - - - - - -
 
Date/Time
WST
Temp

°C
Wind Pressure Rain
since 9am
mm
Weather Cloud Vis
km
Sea
Height
m
Swell
Dir
 
Speed
knots
Gust
knots
hPa Trend Height
m
Period
s
Dir
27/11:30pm 17.0 SSE 8 12 1018.9 - 0.0 - - - - - - -
27/11:00pm 17.2 SSE 6 10 1019.0 - 0.0 - - - - - - -
27/10:30pm 17.5 SSE 6 10 1019.2 - 0.0 - - - - - - -
27/10:00pm 17.4 SSE 7 10 1019.4 - 0.0 - - - - - - -
27/09:30pm 18.0 SSE 7 10 1019.5 - 0.0 - - - - - - -
27/09:00pm 18.2 SSE 8 12 1019.7 - 0.0 - - - - - - -

Other Formats:

Comma delimited format used in spreadsheet applications
http://www.bom.gov.au/fwo/IDW60701/IDW60701.94605.axf

JavaScript Object Notation format (JSON) in row-major order
http://www.bom.gov.au/fwo/IDW60701/IDW60701.94605.json